Ramore, Canada
Current Conditions -  °F | °C
As of 10:00 PM on Thursday 27 Nov 2014 (Local Time) from CYTS Reporting Station
Light Snow Light Snow  
Wind Chill: -16°   Ceiling: 2000
Heat Index: -4°   Visibility: 10mi
Dew Point: -9°   Wind: 6mph
Humidity: 78%   Direction: 330°NNW
Pressure: 30.2"   Gusts: NA
Location:  48.42°N, 80.32°W
Report Text: CYTS 280300Z 33005KT 10SM -SN BKN020 M20/M23 A3020 RMK SC5 SLP258
Loading
Personal Weather Stations






























Interactive Weather Map New forecast layout! Learn more

10-Day Weather Forecast

Advertisements
Track Severe Weather on mobile